sensor_id;sensor_type;location;lat;lon;timestamp;pressure;altitude;pressure_sealevel;temperature;humidity
75420;BME280;63998;52.488;13.428;2022-11-11T00:01:43;102323.13;;;9.63;75.99
75420;BME280;63998;52.488;13.428;2022-11-11T00:04:08;102321.44;;;9.65;75.56
75420;BME280;63998;52.488;13.428;2022-11-11T00:06:34;102317.19;;;9.67;75.57
75420;BME280;63998;52.488;13.428;2022-11-11T00:08:59;102316.34;;;9.68;75.21
75420;BME280;63998;52.488;13.428;2022-11-11T00:11:24;102315.38;;;9.65;75.89
75420;BME280;63998;52.488;13.428;2022-11-11T00:13:49;102309.22;;;9.61;75.11
75420;BME280;63998;52.488;13.428;2022-11-11T00:16:18;102305.88;;;9.65;75.78
75420;BME280;63998;52.488;13.428;2022-11-11T00:18:45;102305.88;;;9.65;75.95
75420;BME280;63998;52.488;13.428;2022-11-11T00:21:30;102318.66;;;9.59;75.93
75420;BME280;63998;52.488;13.428;2022-11-11T00:24:26;102321.81;;;9.49;76.32
75420;BME280;63998;52.488;13.428;2022-11-11T00:27:11;102316.34;;;9.42;76.23
75420;BME280;63998;52.488;13.428;2022-11-11T00:29:38;102332.81;;;9.42;76.48
75420;BME280;63998;52.488;13.428;2022-11-11T00:32:04;102340.47;;;9.38;76.62
75420;BME280;63998;52.488;13.428;2022-11-11T00:34:55;102341.13;;;9.32;76.78
75420;BME280;63998;52.488;13.428;2022-11-11T00:37:41;102342.84;;;9.31;76.90
75420;BME280;63998;52.488;13.428;2022-11-11T00:40:07;102334.16;;;9.31;76.81
75420;BME280;63998;52.488;13.428;2022-11-11T00:42:33;102337.69;;;9.33;76.77
75420;BME280;63998;52.488;13.428;2022-11-11T00:44:58;102341.94;;;9.31;76.88
75420;BME280;63998;52.488;13.428;2022-11-11T00:47:25;102338.47;;;9.30;76.99
75420;BME280;63998;52.488;13.428;2022-11-11T00:50:24;102342.88;;;9.33;76.73
75420;BME280;63998;52.488;13.428;2022-11-11T00:53:19;102343.56;;;9.27;76.80
75420;BME280;63998;52.488;13.428;2022-11-11T00:55:45;102340.06;;;9.25;76.96
75420;BME280;63998;52.488;13.428;2022-11-11T00:58:10;102324.38;;;9.22;76.83
75420;BME280;63998;52.488;13.428;2022-11-11T01:00:37;102326.81;;;9.18;77.34
75420;BME280;63998;52.488;13.428;2022-11-11T01:03:03;102340.59;;;9.17;77.07
75420;BME280;63998;52.488;13.428;2022-11-11T01:05:33;102320.69;;;9.14;77.37
75420;BME280;63998;52.488;13.428;2022-11-11T01:07:58;102328.41;;;9.13;77.48
75420;BME280;63998;52.488;13.428;2022-11-11T01:10:24;102309.31;;;9.11;77.43
75420;BME280;63998;52.488;13.428;2022-11-11T01:13:20;102296.25;;;9.08;77.49
75420;BME280;63998;52.488;13.428;2022-11-11T01:15:50;102300.50;;;9.06;77.63
75420;BME280;63998;52.488;13.428;2022-11-11T01:18:21;102297.91;;;9.06;77.63
75420;BME280;63998;52.488;13.428;2022-11-11T01:20:47;102301.44;;;9.08;77.73
75420;BME280;63998;52.488;13.428;2022-11-11T01:23:26;102293.66;;;9.08;77.47
75420;BME280;63998;52.488;13.428;2022-11-11T01:25:52;102297.06;;;9.07;77.63
75420;BME280;63998;52.488;13.428;2022-11-11T01:28:17;102294.44;;;9.05;77.79
75420;BME280;63998;52.488;13.428;2022-11-11T01:30:45;102297.06;;;9.07;77.82
75420;BME280;63998;52.488;13.428;2022-11-11T01:33:11;102300.59;;;9.09;77.50
75420;BME280;63998;52.488;13.428;2022-11-11T01:35:40;102295.63;;;9.15;77.33
75420;BME280;63998;52.488;13.428;2022-11-11T01:38:06;102301.66;;;9.14;77.39
75420;BME280;63998;52.488;13.428;2022-11-11T01:40:40;102294.59;;;9.10;77.70
75420;BME280;63998;52.488;13.428;2022-11-11T01:48:28;102312.72;;;9.10;77.51
75420;BME280;63998;52.488;13.428;2022-11-11T01:51:20;102311.84;;;9.09;77.42
75420;BME280;63998;52.488;13.428;2022-11-11T01:53:53;102309.31;;;9.11;77.23
75420;BME280;63998;52.488;13.428;2022-11-11T01:56:21;102306.78;;;9.12;77.33
75420;BME280;63998;52.488;13.428;2022-11-11T01:58:49;102301.59;;;9.12;77.25
75420;BME280;63998;52.488;13.428;2022-11-11T02:01:16;102307.56;;;9.10;77.18
75420;BME280;63998;52.488;13.428;2022-11-11T02:03:42;102318.03;;;9.13;77.23
75420;BME280;63998;52.488;13.428;2022-11-11T02:06:32;102326.63;;;9.12;77.18
75420;BME280;63998;52.488;13.428;2022-11-11T02:08:59;102324.88;;;9.11;77.11
75420;BME280;63998;52.488;13.428;2022-11-11T02:11:25;102326.53;;;9.09;77.24
75420;BME280;63998;52.488;13.428;2022-11-11T02:14:11;102337.72;;;9.08;77.07
75420;BME280;63998;52.488;13.428;2022-11-11T02:16:54;102347.16;;;9.06;77.22
75420;BME280;63998;52.488;13.428;2022-11-11T02:19:29;102339.22;;;9.01;77.37
75420;BME280;63998;52.488;13.428;2022-11-11T02:21:59;102341.13;;;9.07;77.35
75420;BME280;63998;52.488;13.428;2022-11-11T02:24:26;102341.84;;;9.02;77.69
75420;BME280;63998;52.488;13.428;2022-11-11T02:26:54;102346.25;;;9.05;77.07
75420;BME280;63998;52.488;13.428;2022-11-11T02:29:23;102352.22;;;9.02;77.23
75420;BME280;63998;52.488;13.428;2022-11-11T02:31:55;102354.69;;;8.98;77.29
75420;BME280;63998;52.488;13.428;2022-11-11T02:34:27;102360.84;;;9.02;77.02
75420;BME280;63998;52.488;13.428;2022-11-11T02:36:53;102360.75;;;8.98;77.35
75420;BME280;63998;52.488;13.428;2022-11-11T02:39:18;102350.38;;;8.98;77.00
75420;BME280;63998;52.488;13.428;2022-11-11T02:41:46;102350.25;;;8.95;77.35
75420;BME280;63998;52.488;13.428;2022-11-11T02:44:24;102358.09;;;8.97;77.56
75420;BME280;63998;52.488;13.428;2022-11-11T02:46:50;102352.91;;;8.97;77.61
75420;BME280;63998;52.488;13.428;2022-11-11T02:49:17;102348.78;;;9.02;77.65
75420;BME280;63998;52.488;13.428;2022-11-11T02:51:43;102341.66;;;8.96;77.42
75420;BME280;63998;52.488;13.428;2022-11-11T02:54:08;102343.31;;;8.94;77.25
75420;BME280;63998;52.488;13.428;2022-11-11T02:56:34;102340.78;;;8.96;77.65
75420;BME280;63998;52.488;13.428;2022-11-11T02:59:17;102348.50;;;8.94;77.34
75420;BME280;63998;52.488;13.428;2022-11-11T03:01:46;102357.78;;;8.88;77.25
75420;BME280;63998;52.488;13.428;2022-11-11T03:04:11;102355.13;;;8.86;77.88
75420;BME280;63998;52.488;13.428;2022-11-11T03:06:37;102356.16;;;8.91;77.61
75420;BME280;63998;52.488;13.428;2022-11-11T03:09:02;102356.97;;;8.90;77.40
75420;BME280;63998;52.488;13.428;2022-11-11T03:11:30;102344.88;;;8.89;77.58
75420;BME280;63998;52.488;13.428;2022-11-11T03:13:57;102344.88;;;8.89;77.64
75420;BME280;63998;52.488;13.428;2022-11-11T03:16:25;102350.06;;;8.89;77.50
75420;BME280;63998;52.488;13.428;2022-11-11T03:19:09;102339.47;;;8.83;77.74
75420;BME280;63998;52.488;13.428;2022-11-11T03:21:38;102343.78;;;8.83;77.91
75420;BME280;63998;52.488;13.428;2022-11-11T03:24:03;102341.25;;;8.84;77.80
75420;BME280;63998;52.488;13.428;2022-11-11T03:26:29;102333.47;;;8.84;77.98
75420;BME280;63998;52.488;13.428;2022-11-11T03:28:54;102336.25;;;8.90;77.71
75420;BME280;63998;52.488;13.428;2022-11-11T03:31:22;102338.84;;;8.90;77.69
75420;BME280;63998;52.488;13.428;2022-11-11T03:33:47;102336.16;;;8.87;77.69
75420;BME280;63998;52.488;13.428;2022-11-11T03:36:15;102332.75;;;8.88;77.36
75420;BME280;63998;52.488;13.428;2022-11-11T03:38:40;102325.03;;;8.90;77.52
75420;BME280;63998;52.488;13.428;2022-11-11T03:41:06;102315.44;;;8.87;77.44
75420;BME280;63998;52.488;13.428;2022-11-11T03:43:33;102323.16;;;8.86;77.74
75420;BME280;63998;52.488;13.428;2022-11-11T03:46:03;102314.38;;;8.82;77.74
75420;BME280;63998;52.488;13.428;2022-11-11T03:48:30;102308.19;;;8.77;77.78
75420;BME280;63998;52.488;13.428;2022-11-11T03:50:58;102301.66;;;8.88;77.76
75420;BME280;63998;52.488;13.428;2022-11-11T03:53:24;102290.41;;;8.88;77.84
75420;BME280;63998;52.488;13.428;2022-11-11T03:55:50;102307.84;;;8.93;77.60
75420;BME280;63998;52.488;13.428;2022-11-11T03:58:16;102303.44;;;8.91;77.00
75420;BME280;63998;52.488;13.428;2022-11-11T04:00:42;102291.19;;;8.85;77.47
75420;BME280;63998;52.488;13.428;2022-11-11T04:03:14;102298.72;;;8.79;77.75
75420;BME280;63998;52.488;13.428;2022-11-11T04:06:02;102298.53;;;8.73;77.83
75420;BME280;63998;52.488;13.428;2022-11-11T04:08:29;102306.31;;;8.73;77.89
75420;BME280;63998;52.488;13.428;2022-11-11T04:11:23;102306.19;;;8.70;77.84
75420;BME280;63998;52.488;13.428;2022-11-11T04:13:49;102311.25;;;8.67;78.34
75420;BME280;63998;52.488;13.428;2022-11-11T04:16:34;102319.91;;;8.68;78.24
75420;BME280;63998;52.488;13.428;2022-11-11T04:18:59;102311.38;;;8.70;78.07
75420;BME280;63998;52.488;13.428;2022-11-11T04:21:45;102305.38;;;8.71;77.95
75420;BME280;63998;52.488;13.428;2022-11-11T04:24:12;102291.47;;;8.69;78.08
75420;BME280;63998;52.488;13.428;2022-11-11T04:26:59;102309.66;;;8.71;78.10
75420;BME280;63998;52.488;13.428;2022-11-11T04:29:25;102309.59;;;8.69;78.06
75420;BME280;63998;52.488;13.428;2022-11-11T04:32:08;102308.84;;;8.72;78.12
75420;BME280;63998;52.488;13.428;2022-11-11T04:34:54;102311.50;;;8.73;77.88
75420;BME280;63998;52.488;13.428;2022-11-11T04:37:23;102312.38;;;8.74;78.08
75420;BME280;63998;52.488;13.428;2022-11-11T04:39:49;102296.94;;;8.77;78.14
75420;BME280;63998;52.488;13.428;2022-11-11T04:42:36;102301.31;;;8.79;78.29
75420;BME280;63998;52.488;13.428;2022-11-11T04:45:04;102303.88;;;8.78;78.13
75420;BME280;63998;52.488;13.428;2022-11-11T04:50:21;102315.84;;;8.74;77.89
75420;BME280;63998;52.488;13.428;2022-11-11T04:52:49;102319.25;;;8.73;78.00
75420;BME280;63998;52.488;13.428;2022-11-11T04:55:14;102328.69;;;8.71;78.14
75420;BME280;63998;52.488;13.428;2022-11-11T04:57:58;102319.91;;;8.68;77.97
75420;BME280;63998;52.488;13.428;2022-11-11T05:00:24;102316.44;;;8.67;77.99
75420;BME280;63998;52.488;13.428;2022-11-11T05:02:52;102322.50;;;8.68;78.10
75420;BME280;63998;52.488;13.428;2022-11-11T05:05:36;102321.75;;;8.70;77.82
75420;BME280;63998;52.488;13.428;2022-11-11T05:08:21;102320.78;;;8.68;77.61
75420;BME280;63998;52.488;13.428;2022-11-11T05:11:08;102323.31;;;8.65;77.55
75420;BME280;63998;52.488;13.428;2022-11-11T05:13:33;102306.81;;;8.63;78.17
75420;BME280;63998;52.488;13.428;2022-11-11T05:16:22;102313.59;;;8.59;77.98
75420;BME280;63998;52.488;13.428;2022-11-11T05:19:24;102311.94;;;8.61;78.09
75420;BME280;63998;52.488;13.428;2022-11-11T05:22:13;102311.94;;;8.61;78.27
75420;BME280;63998;52.488;13.428;2022-11-11T05:24:40;102318.78;;;8.59;78.42
75420;BME280;63998;52.488;13.428;2022-11-11T05:27:24;102325.84;;;8.63;78.24
75420;BME280;63998;52.488;13.428;2022-11-11T05:29:51;102330.13;;;8.63;78.13
75420;BME280;63998;52.488;13.428;2022-11-11T05:32:18;102332.66;;;8.61;78.19
75420;BME280;63998;52.488;13.428;2022-11-11T05:34:44;102343.03;;;8.61;77.89
75420;BME280;63998;52.488;13.428;2022-11-11T05:37:10;102345.50;;;8.58;77.77
75420;BME280;63998;52.488;13.428;2022-11-11T05:39:35;102367.94;;;8.58;77.82
75420;BME280;63998;52.488;13.428;2022-11-11T05:42:01;102375.09;;;8.65;77.86
75420;BME280;63998;52.488;13.428;2022-11-11T05:44:28;102376.75;;;8.63;77.74
75420;BME280;63998;52.488;13.428;2022-11-11T05:46:56;102373.72;;;8.75;77.50
75420;BME280;63998;52.488;13.428;2022-11-11T05:49:25;102380.59;;;8.74;77.16
75420;BME280;63998;52.488;13.428;2022-11-11T05:51:50;102381.19;;;8.67;77.42
75420;BME280;63998;52.488;13.428;2022-11-11T05:54:17;102376.84;;;8.66;77.25
75420;BME280;63998;52.488;13.428;2022-11-11T05:56:43;102367.94;;;8.58;77.70
75420;BME280;63998;52.488;13.428;2022-11-11T05:59:09;102363.63;;;8.58;77.82
75420;BME280;63998;52.488;13.428;2022-11-11T06:01:35;102370.50;;;8.58;77.82
75420;BME280;63998;52.488;13.428;2022-11-11T06:04:06;102372.22;;;8.57;77.78
75420;BME280;63998;52.488;13.428;2022-11-11T06:06:33;102367.81;;;8.55;77.86
75420;BME280;63998;52.488;13.428;2022-11-11T06:09:01;102367.72;;;8.52;77.93
75420;BME280;63998;52.488;13.428;2022-11-11T06:11:26;102372.97;;;8.55;77.96
75420;BME280;63998;52.488;13.428;2022-11-11T06:13:52;102378.28;;;8.58;77.91
75420;BME280;63998;52.488;13.428;2022-11-11T06:16:20;102379.06;;;8.55;77.74
75420;BME280;63998;52.488;13.428;2022-11-11T06:18:46;102386.75;;;8.54;77.76
75420;BME280;63998;52.488;13.428;2022-11-11T06:21:14;102382.53;;;8.56;77.75
75420;BME280;63998;52.488;13.428;2022-11-11T06:23:39;102392.06;;;8.57;78.08
75420;BME280;63998;52.488;13.428;2022-11-11T06:26:07;102393.69;;;8.55;77.99
75420;BME280;63998;52.488;13.428;2022-11-11T06:28:39;102381.69;;;8.57;77.96
75420;BME280;63998;52.488;13.428;2022-11-11T06:31:05;102385.22;;;8.59;77.85
75420;BME280;63998;52.488;13.428;2022-11-11T06:33:32;102390.28;;;8.56;77.74
75420;BME280;63998;52.488;13.428;2022-11-11T06:35:58;102386.75;;;8.54;78.10
75420;BME280;63998;52.488;13.428;2022-11-11T06:38:24;102391.13;;;8.55;78.00
75420;BME280;63998;52.488;13.428;2022-11-11T06:40:49;102392.88;;;8.56;78.30
75420;BME280;63998;52.488;13.428;2022-11-11T06:43:14;102397.03;;;8.51;78.00
75420;BME280;63998;52.488;13.428;2022-11-11T06:45:40;102397.03;;;8.51;78.20
75420;BME280;63998;52.488;13.428;2022-11-11T06:48:05;102386.66;;;8.51;78.09
75420;BME280;63998;52.488;13.428;2022-11-11T06:50:31;102388.75;;;8.61;78.26
75420;BME280;63998;52.488;13.428;2022-11-11T06:53:08;102376.84;;;8.66;77.93
75420;BME280;63998;52.488;13.428;2022-11-11T06:55:34;102382.13;;;8.69;77.84
75420;BME280;63998;52.488;13.428;2022-11-11T06:58:08;102374.22;;;8.64;77.74
75420;BME280;63998;52.488;13.428;2022-11-11T07:00:34;102378.41;;;8.61;77.54
75420;BME280;63998;52.488;13.428;2022-11-11T07:03:01;102378.28;;;8.58;77.71
75420;BME280;63998;52.488;13.428;2022-11-11T07:05:27;102373.22;;;8.61;77.54
75420;BME280;63998;52.488;13.428;2022-11-11T07:07:52;102370.84;;;8.67;77.53
75420;BME280;63998;52.488;13.428;2022-11-11T07:10:17;102385.47;;;8.65;77.52
75420;BME280;63998;52.488;13.428;2022-11-11T07:12:43;102393.94;;;8.61;77.28
75420;BME280;63998;52.488;13.428;2022-11-11T07:15:09;102390.66;;;8.65;77.79
75420;BME280;63998;52.488;13.428;2022-11-11T07:17:34;102387.13;;;8.63;77.39
75420;BME280;63998;52.488;13.428;2022-11-11T07:20:02;102382.13;;;8.69;77.34
75420;BME280;63998;52.488;13.428;2022-11-11T07:22:28;102393.56;;;8.74;77.24
75420;BME280;63998;52.488;13.428;2022-11-11T07:24:55;102388.53;;;8.79;77.10
75420;BME280;63998;52.488;13.428;2022-11-11T07:27:23;102389.53;;;8.82;77.04
75420;BME280;63998;52.488;13.428;2022-11-11T07:29:48;102386.78;;;8.78;76.88
75420;BME280;63998;52.488;13.428;2022-11-11T07:32:14;102392.13;;;8.82;77.13
75420;BME280;63998;52.488;13.428;2022-11-11T07:34:42;102391.28;;;8.83;76.94
75420;BME280;63998;52.488;13.428;2022-11-11T07:37:09;102389.75;;;8.88;76.59
75420;BME280;63998;52.488;13.428;2022-11-11T07:39:34;102400.31;;;8.94;76.74
75420;BME280;63998;52.488;13.428;2022-11-11T07:42:00;102404.78;;;8.98;76.20
75420;BME280;63998;52.488;13.428;2022-11-11T07:44:28;102404.06;;;9.02;75.58
75420;BME280;63998;52.488;13.428;2022-11-11T07:46:55;102419.59;;;9.02;75.99
75420;BME280;63998;52.488;13.428;2022-11-11T07:49:21;102408.38;;;9.02;75.97
75420;BME280;63998;52.488;13.428;2022-11-11T07:51:46;102417.88;;;9.02;75.80
75420;BME280;63998;52.488;13.428;2022-11-11T07:54:14;102420.78;;;9.11;75.93
75420;BME280;63998;52.488;13.428;2022-11-11T07:56:39;102416.41;;;9.10;75.66
75420;BME280;63998;52.488;13.428;2022-11-11T07:59:06;102421.59;;;9.10;75.38
75420;BME280;63998;52.488;13.428;2022-11-11T08:01:32;102419.84;;;9.09;75.85
75420;BME280;63998;52.488;13.428;2022-11-11T08:04:00;102419.84;;;9.09;75.96
75420;BME280;63998;52.488;13.428;2022-11-11T08:06:25;102430.31;;;9.12;75.70
75420;BME280;63998;52.488;13.428;2022-11-11T08:08:50;102448.56;;;9.15;75.66
75420;BME280;63998;52.488;13.428;2022-11-11T08:11:16;102449.28;;;9.11;75.62
75420;BME280;63998;52.488;13.428;2022-11-11T08:14:01;102436.31;;;9.11;75.36
75420;BME280;63998;52.488;13.428;2022-11-11T08:16:27;102432.16;;;9.16;75.67
75420;BME280;63998;52.488;13.428;2022-11-11T08:18:52;102431.28;;;9.15;75.32
75420;BME280;63998;52.488;13.428;2022-11-11T08:21:18;102429.75;;;9.20;75.86
75420;BME280;63998;52.488;13.428;2022-11-11T08:23:43;102439.47;;;9.26;75.04
75420;BME280;63998;52.488;13.428;2022-11-11T08:26:09;102452.50;;;9.29;74.64
75420;BME280;63998;52.488;13.428;2022-11-11T08:28:34;102453.44;;;9.31;74.96
75420;BME280;63998;52.488;13.428;2022-11-11T08:31:00;102458.06;;;9.40;74.49
75420;BME280;63998;52.488;13.428;2022-11-11T08:33:26;102452.16;;;9.44;74.61
75420;BME280;63998;52.488;13.428;2022-11-11T08:35:53;102460.25;;;9.53;74.62
75420;BME280;63998;52.488;13.428;2022-11-11T08:38:20;102455.63;;;9.69;74.17
75420;BME280;63998;52.488;13.428;2022-11-11T08:40:46;102465.56;;;9.83;73.92
75420;BME280;63998;52.488;13.428;2022-11-11T08:43:14;102472.66;;;9.87;73.49
75420;BME280;63998;52.488;13.428;2022-11-11T08:45:39;102473.72;;;9.93;72.71
75420;BME280;63998;52.488;13.428;2022-11-11T08:48:07;102471.38;;;10.01;72.67
75420;BME280;63998;52.488;13.428;2022-11-11T08:50:40;102475.09;;;10.09;72.01
75420;BME280;63998;52.488;13.428;2022-11-11T08:53:09;102487.34;;;10.13;72.02
75420;BME280;63998;52.488;13.428;2022-11-11T08:55:37;102489.31;;;10.20;71.59
75420;BME280;63998;52.488;13.428;2022-11-11T08:58:06;102500.00;;;10.29;71.19
75420;BME280;63998;52.488;13.428;2022-11-11T09:00:32;102503.63;;;10.34;70.71
75420;BME280;63998;52.488;13.428;2022-11-11T09:03:05;102495.19;;;10.41;70.65
75420;BME280;63998;52.488;13.428;2022-11-11T09:05:31;102506.34;;;10.39;70.04
75420;BME280;63998;52.488;13.428;2022-11-11T09:08:00;102504.63;;;10.39;69.48
75420;BME280;63998;52.488;13.428;2022-11-11T09:10:29;102504.78;;;10.44;69.89
75420;BME280;63998;52.488;13.428;2022-11-11T09:12:58;102493.50;;;10.43;70.19
75420;BME280;63998;52.488;13.428;2022-11-11T09:15:23;102500.56;;;10.48;69.75
75420;BME280;63998;52.488;13.428;2022-11-11T09:17:52;102504.38;;;10.59;69.58
75420;BME280;63998;52.488;13.428;2022-11-11T09:20:17;102518.47;;;10.67;69.33
75420;BME280;63998;52.488;13.428;2022-11-11T09:22:46;102508.06;;;10.67;68.81
75420;BME280;63998;52.488;13.428;2022-11-11T09:25:12;102506.50;;;10.72;68.40
75420;BME280;63998;52.488;13.428;2022-11-11T09:27:38;102506.59;;;10.75;67.78
75420;BME280;63998;52.488;13.428;2022-11-11T09:30:06;102501.47;;;10.78;67.88
75420;BME280;63998;52.488;13.428;2022-11-11T09:32:32;102502.41;;;10.80;67.55
75420;BME280;63998;52.488;13.428;2022-11-11T09:34:57;102505.75;;;10.76;67.95
75420;BME280;63998;52.488;13.428;2022-11-11T09:37:23;102510.34;;;10.85;67.59
75420;BME280;63998;52.488;13.428;2022-11-11T09:39:50;102516.66;;;10.93;67.09
75420;BME280;63998;52.488;13.428;2022-11-11T09:42:39;102522.56;;;10.89;67.63
75420;BME280;63998;52.488;13.428;2022-11-11T09:45:18;102527.09;;;10.94;66.93
75420;BME280;63998;52.488;13.428;2022-11-11T09:48:06;102530.72;;;10.99;67.07
75420;BME280;63998;52.488;13.428;2022-11-11T09:50:49;102534.56;;;11.12;67.09
75420;BME280;63998;52.488;13.428;2022-11-11T09:53:29;102526.69;;;11.10;66.96
75420;BME280;63998;52.488;13.428;2022-11-11T09:56:15;102532.84;;;11.12;66.50
75420;BME280;63998;52.488;13.428;2022-11-11T09:58:50;102533.81;;;11.18;66.32
75420;BME280;63998;52.488;13.428;2022-11-11T10:01:24;102530.47;;;11.22;66.78
75420;BME280;63998;52.488;13.428;2022-11-11T10:06:37;102547.84;;;11.23;66.43
75420;BME280;63998;52.488;13.428;2022-11-11T10:09:14;102552.31;;;11.28;66.56
75420;BME280;63998;52.488;13.428;2022-11-11T10:14:20;102553.25;;;11.30;66.29
75420;BME280;63998;52.488;13.428;2022-11-11T10:17:32;102542.06;;;11.33;66.03
75420;BME280;63998;52.488;13.428;2022-11-11T10:19:52;102549.69;;;11.27;66.57
75420;BME280;63998;52.488;13.428;2022-11-11T10:22:26;102544.66;;;11.33;66.11
75420;BME280;63998;52.488;13.428;2022-11-11T10:25:05;102541.22;;;11.34;66.44
75420;BME280;63998;52.488;13.428;2022-11-11T10:27:32;102541.47;;;11.43;66.33
75420;BME280;63998;52.488;13.428;2022-11-11T10:30:03;102549.56;;;11.53;65.84
75420;BME280;63998;52.488;13.428;2022-11-11T10:32:33;102537.72;;;11.65;65.89
75420;BME280;63998;52.488;13.428;2022-11-11T10:35:13;102544.81;;;11.70;65.62
75420;BME280;63998;52.488;13.428;2022-11-11T10:37:42;102551.84;;;11.73;65.40
75420;BME280;63998;52.488;13.428;2022-11-11T10:40:27;102538.69;;;11.68;65.17
75420;BME280;63998;52.488;13.428;2022-11-11T10:42:53;102543.81;;;11.65;65.57
75420;BME280;63998;52.488;13.428;2022-11-11T10:48:18;102536.09;;;11.68;65.38
75420;BME280;63998;52.488;13.428;2022-11-11T10:50:49;102541.34;;;11.70;65.42
75420;BME280;63998;52.488;13.428;2022-11-11T10:56:12;102529.69;;;11.88;65.25
75420;BME280;63998;52.488;13.428;2022-11-11T10:58:50;102523.91;;;11.99;64.79
75420;BME280;63998;52.488;13.428;2022-11-11T11:01:29;102526.50;;;12.00;64.09
75420;BME280;63998;52.488;13.428;2022-11-11T11:04:03;102524.81;;;12.02;64.62
75420;BME280;63998;52.488;13.428;2022-11-11T11:06:35;102525.78;;;12.06;63.78
75420;BME280;63998;52.488;13.428;2022-11-11T11:09:12;102518.06;;;12.09;63.82
75420;BME280;63998;52.488;13.428;2022-11-11T11:12:15;102517.22;;;12.10;63.90
75420;BME280;63998;52.488;13.428;2022-11-11T11:14:44;102505.09;;;12.12;64.25
75420;BME280;63998;52.488;13.428;2022-11-11T11:17:25;102509.69;;;12.22;64.10
75420;BME280;63998;52.488;13.428;2022-11-11T11:20:18;102506.22;;;12.21;64.32
75420;BME280;63998;52.488;13.428;2022-11-11T11:22:52;102494.81;;;12.18;63.51
75420;BME280;63998;52.488;13.428;2022-11-11T11:25:22;102501.69;;;12.14;63.49
75420;BME280;63998;52.488;13.428;2022-11-11T11:27:50;102502.69;;;12.19;63.78
75420;BME280;63998;52.488;13.428;2022-11-11T11:30:25;102502.72;;;12.21;63.79
75420;BME280;63998;52.488;13.428;2022-11-11T11:32:58;102499.25;;;12.20;63.43
75420;BME280;63998;52.488;13.428;2022-11-11T11:35:41;102493.50;;;12.35;63.51
75420;BME280;63998;52.488;13.428;2022-11-11T11:38:10;102499.03;;;12.50;62.70
75420;BME280;63998;52.488;13.428;2022-11-11T11:40:51;102481.44;;;12.40;62.63
75420;BME280;63998;52.488;13.428;2022-11-11T11:43:35;102486.69;;;12.42;62.25
75420;BME280;63998;52.488;13.428;2022-11-11T11:46:03;102474.53;;;12.42;63.05
75420;BME280;63998;52.488;13.428;2022-11-11T11:51:23;102484.81;;;12.35;62.65
75420;BME280;63998;52.488;13.428;2022-11-11T11:54:04;102478.72;;;12.34;62.51
75420;BME280;63998;52.488;13.428;2022-11-11T11:56:38;102482.25;;;12.38;62.50
75420;BME280;63998;52.488;13.428;2022-11-11T11:59:30;102486.66;;;12.40;62.80
75420;BME280;63998;52.488;13.428;2022-11-11T12:10:22;102491.44;;;12.61;62.07
75420;BME280;63998;52.488;13.428;2022-11-11T12:13:07;102475.88;;;12.64;61.74
75420;BME280;63998;52.488;13.428;2022-11-11T12:15:42;102482.84;;;12.65;62.17
75420;BME280;63998;52.488;13.428;2022-11-11T12:18:39;102472.63;;;12.74;61.81
75420;BME280;63998;52.488;13.428;2022-11-11T12:21:16;102474.41;;;12.77;61.37
75420;BME280;63998;52.488;13.428;2022-11-11T12:29:09;102482.22;;;12.77;61.79
75420;BME280;63998;52.488;13.428;2022-11-11T12:44:02;102475.97;;;13.09;60.84
75420;BME280;63998;52.488;13.428;2022-11-11T12:52:22;102467.38;;;13.15;60.36
75420;BME280;63998;52.488;13.428;2022-11-11T12:55:12;102468.47;;;13.26;60.09
75420;BME280;63998;52.488;13.428;2022-11-11T13:00:21;102471.00;;;13.21;59.59
75420;BME280;63998;52.488;13.428;2022-11-11T13:05:20;102459.06;;;13.36;59.60
75420;BME280;63998;52.488;13.428;2022-11-11T13:14:25;102466.25;;;13.49;59.08
75420;BME280;63998;52.488;13.428;2022-11-11T13:16:29;102464.28;;;13.36;59.36
75420;BME280;63998;52.488;13.428;2022-11-11T13:19:02;102463.97;;;13.17;59.93
75420;BME280;63998;52.488;13.428;2022-11-11T13:21:41;102459.72;;;13.24;59.66
75420;BME280;63998;52.488;13.428;2022-11-11T13:24:14;102457.09;;;13.24;59.51
75420;BME280;63998;52.488;13.428;2022-11-11T13:26:45;102456.19;;;13.20;59.42
75420;BME280;63998;52.488;13.428;2022-11-11T13:32:04;102456.84;;;13.10;59.97
75420;BME280;63998;52.488;13.428;2022-11-11T13:34:32;102455.22;;;13.15;60.32
75420;BME280;63998;52.488;13.428;2022-11-11T13:37:03;102457.69;;;13.11;60.28
75420;BME280;63998;52.488;13.428;2022-11-11T13:39:36;102450.66;;;13.05;60.35
75420;BME280;63998;52.488;13.428;2022-11-11T13:42:02;102457.34;;;12.92;60.23
75420;BME280;63998;52.488;13.428;2022-11-11T13:44:32;102460.94;;;12.98;60.46
75420;BME280;63998;52.488;13.428;2022-11-11T13:47:10;102450.53;;;13.01;60.62
75420;BME280;63998;52.488;13.428;2022-11-11T13:49:53;102452.25;;;12.97;60.38
75420;BME280;63998;52.488;13.428;2022-11-11T13:52:24;102460.06;;;12.97;60.70
75420;BME280;63998;52.488;13.428;2022-11-11T13:54:58;102466.84;;;12.89;61.02
75420;BME280;63998;52.488;13.428;2022-11-11T13:57:25;102459.94;;;12.91;61.35
75420;BME280;63998;52.488;13.428;2022-11-11T14:00:03;102456.34;;;12.86;61.33
75420;BME280;63998;52.488;13.428;2022-11-11T14:02:34;102463.31;;;12.87;61.36
75420;BME280;63998;52.488;13.428;2022-11-11T14:07:55;102462.34;;;12.82;61.13
75420;BME280;63998;52.488;13.428;2022-11-11T14:12:51;102475.41;;;12.82;61.51
75420;BME280;63998;52.488;13.428;2022-11-11T14:15:36;102465.03;;;12.85;61.66
75420;BME280;63998;52.488;13.428;2022-11-11T14:20:48;102463.44;;;12.93;61.51
75420;BME280;63998;52.488;13.428;2022-11-11T14:28:47;102467.19;;;13.06;60.97
75420;BME280;63998;52.488;13.428;2022-11-11T14:36:48;102467.81;;;12.94;61.70